This is the latest recevied weather packets stored in our database for station/object EA1CUE-WX. If no packets are shown the sender has not sent any weather packets the latest 10 day(s).
| Time | Temp. | Humidity | Pressure | Rain* | Wind** | Luminosity | Snow |
|---|---|---|---|---|---|---|---|
| 1787435329 | 18.89° C | 10% | 1016.8 hPa | 0 mm | - | - | - |
| 1787435029 | 18.89° C | 11% | 1016.8 hPa | 0 mm | - | - | - |
| 1787434729 | 18.89° C | 10% | 1016.8 hPa | 0 mm | - | - | - |
| 1787434429 | 18.89° C | 9% | 1016.7 hPa | 0 mm | - | - | - |
| 1787434130 | 18.89° C | 7% | 1016.8 hPa | 0 mm | - | - | - |
| 1787433829 | 18.89° C | 4% | 1016.9 hPa | 0 mm | - | - | - |
| 1787433528 | 18.89° C | 2% | 1016.9 hPa | 0 mm | - | - | - |
| 1787433229 | 18.89° C | 2% | 1016.9 hPa | 0 mm | - | - | - |
| 1787432928 | 18.89° C | 2% | 1016.9 hPa | 0 mm | - | - | - |
| 1787432629 | 18.89° C | 2% | 1016.9 hPa | 0 mm | - | - | - |
| 1787432330 | 18.89° C | 4% | 1016.9 hPa | 0 mm | - | - | - |
| 1787432029 | 18.89° C | 7% | 1017 hPa | 0 mm | - | - | - |
| 1787431729 | 18.89° C | 11% | 1016.9 hPa | 0 mm | - | - | - |
| 1787431429 | 19.44° C | 15% | 1016.8 hPa | 0 mm | - | - | - |
| 1787431128 | 19.44° C | 18% | 1016.6 hPa | 0 mm | - | - | - |
| 1787430830 | 19.44° C | 22% | 1016.7 hPa | 0 mm | - | - | - |
| 1787430529 | 20° C | 26% | 1016.5 hPa | 0 mm | - | - | - |
| 1787430229 | 20° C | 30% | 1016.4 hPa | 0 mm | - | - | - |
| 1787429928 | 20° C | 33% | 1016.3 hPa | 0 mm | - | - | - |
| 1787429628 | 20.56° C | 36% | 1016.2 hPa | 0 mm | - | - | - |
| 1787429329 | 20.56° C | 39% | 1016 hPa | 0 mm | - | - | - |
| 1787428387 | 21.11° C | 43% | 1015.9 hPa | 0 mm | - | - | - |
| 1787428087 | 21.11° C | 44% | 1015.8 hPa | 0 mm | - | - | - |
| 1787427787 | 21.11° C | 44% | 1015.7 hPa | 0 mm | - | - | - |
| 1787427487 | 21.67° C | 45% | 1015.7 hPa | 0 mm | - | - | - |
* Rain latest hour (hover to see other rain measurements)
** Current wind speed in m/s (hover to see current wind gust speed)